Time;durP1;ratioP1;P1;durP2;ratioP2;P2;SDS_P1;SDS_P2;PMS_P1;PMS_P2;Temp;Humidity;BMP_temperature;BMP_pressure;BME280_temperature;BME280_humidity;BME280_pressure;Samples;Min_cycle;Max_cycle;Signal;HPM_P1;HPM_P2
2023/01/12 00:01:14;;;;;;;;;;;;;;;;;;5000350;28;5033;-59
2023/01/12 00:03:40;;;;;;;;;;;;;;;;;;4998800;28;3533;-59
2023/01/12 00:06:08;;;;;;;;;;;;;;;;;;4996561;28;4498;-59
2023/01/12 00:08:33;;;;;;;;;;;;;;;;;;4996428;28;4726;-59
2023/01/12 00:10:59;;;;;;;;;;;;;;;;;;5003704;28;5093;-59
2023/01/12 00:13:24;;;;;;;;;;;;;;;;;;4999031;28;5157;-60
2023/01/12 00:18:33;;;;;;;;;;;;;;;;;;4996504;28;5028;-58
2023/01/12 00:20:58;;;;;;;;;;;;;;;;;;4998063;28;5064;-59
2023/01/12 00:23:25;;;;;;;;;;;;;;;;;;5001168;28;4743;-58
2023/01/12 00:25:50;;;;;;;;;;;;;;;;;;4998005;28;4571;-59
2023/01/12 00:28:16;;;;;;;;;;;;;;;;;;5004919;28;4719;-61
2023/01/12 00:30:41;;;;;;;;;;;;;;;;;;5003317;28;3428;-58
2023/01/12 00:33:07;;;;;;;;;;;;;;;;;;5002978;28;5718;-58
2023/01/12 00:35:34;;;;;;;;;;;;;;;;;;5006430;28;4666;-58
2023/01/12 00:37:59;;;;;;;;;;;;;;;;;;5002050;28;5131;-59
2023/01/12 00:40:24;;;;;;;;;;;;;;;;;;4999600;28;4545;-59
2023/01/12 00:45:33;;;;;;;;;;;;;;;;;;4998032;28;4422;-57
2023/01/12 00:47:59;;;;;;;;;;;;;;;;;;4999394;28;4924;-59
2023/01/12 00:50:24;;;;;;;;;;;;;;;;;;5003976;28;5032;-59
2023/01/12 00:52:49;;;;;;;;;;;;;;;;;;5003217;28;5129;-58
2023/01/12 00:55:14;;;;;;;;;;;;;;;;;;5002602;28;4978;-59
2023/01/12 00:57:40;;;;;;;;;;;;;;;;;;5005067;28;3316;-59
2023/01/12 01:00:05;;;;;;;;;;;;;;;;;;4997713;28;5056;-58
2023/01/12 01:02:30;;;;;;;;;;;;;;;;;;4999862;28;4962;-60
2023/01/12 01:04:56;;;;;;;;;;;;;;;;;;5001306;28;4977;-59
2023/01/12 01:07:21;;;;;;;;;;;;;;;;;;4998205;28;5140;-60
2023/01/12 01:09:46;;;;;;;;;;;;;;;;;;5001999;28;1985;-62
2023/01/12 01:12:11;;;;;;;;;;;;;;;;;;5004316;28;5134;-59
2023/01/12 01:14:37;;;;;;;;;;;;;;;;;;5000588;28;4731;-59
2023/01/12 01:17:02;;;;;;;;;;;;;;;;;;5001312;28;4781;-60
2023/01/12 01:19:27;;;;;;;;;;;;;;;;;;5003311;28;5167;-59
2023/01/12 01:21:53;;;;;;;;;;;;;;;;;;5008500;28;2620;-59
2023/01/12 01:24:18;;;;;;;;;;;;;;;;;;5003838;28;5030;-62
2023/01/12 01:26:43;;;;;;;;;;;;;;;;;;5002655;28;4546;-58
2023/01/12 01:29:08;;;;;;;;;;;;;;;;;;5003883;28;4960;-59
2023/01/12 01:31:34;;;;;;;;;;;;;;;;;;5005438;28;4671;-58
2023/01/12 01:33:59;;;;;;;;;;;;;;;;;;5002050;28;3364;-58
2023/01/12 01:36:24;;;;;;;;;;;;;;;;;;5006952;28;4964;-58
2023/01/12 01:38:49;;;;;;;;;;;;;;;;;;5002941;28;5276;-58
2023/01/12 01:41:18;;;;;;;;;;;;;;;;;;5004055;28;5245;-60
2023/01/12 01:43:47;;;;;;;;;;;;;;;;;;5006888;28;5027;-58
2023/01/12 01:46:12;;;;;;;;;;;;;;;;;;5006897;28;3546;-62
2023/01/12 01:48:38;;;;;;;;;;;;;;;;;;4984323;28;4543;-59
2023/01/12 01:51:06;;;;;;;;;;;;;;;;;;4999149;28;4486;-58
2023/01/12 01:53:31;;;;;;;;;;;;;;;;;;5000924;28;4653;-60
2023/01/12 01:55:58;;;;;;;;;;;;;;;;;;5006125;28;4938;-58
2023/01/12 01:58:43;;;;;;;;;;;;;;;;;;5006438;28;4989;-58
2023/01/12 02:01:08;;;;;;;;;;;;;;;;;;5003788;28;3621;-57
2023/01/12 02:03:34;;;;;;;;;;;;;;;;;;5006723;28;4409;-58
2023/01/12 02:05:59;;;;;;;;;;;;;;;;;;5002262;28;5077;-58
2023/01/12 02:08:29;;;;;;;;;;;;;;;;;;5004711;28;5209;-57
2023/01/12 02:10:55;;;;;;;;;;;;;;;;;;5002365;28;5185;-57
2023/01/12 02:16:20;;;;;;;;;;;;;;;;;;5000619;28;3316;-58
2023/01/12 02:19:14;;;;;;;;;;;;;;;;;;5000212;28;5139;-58
2023/01/12 02:21:54;;;;;;;;;;;;;;;;;;4946989;28;5219;-59
2023/01/12 02:24:25;;;;;;;;;;;;;;;;;;4996673;28;4478;-58
2023/01/12 02:26:51;;;;;;;;;;;;;;;;;;5001560;28;5719;-57
2023/01/12 02:29:25;;;;;;;;;;;;;;;;;;4999957;28;5030;-58
2023/01/12 02:31:53;;;;;;;;;;;;;;;;;;5001208;28;5081;-57
2023/01/12 02:34:25;;;;;;;;;;;;;;;;;;5001998;28;5197;-61
2023/01/12 02:37:09;;;;;;;;;;;;;;;;;;5004489;28;3304;-58
2023/01/12 02:39:40;;;;;;;;;;;;;;;;;;5005915;28;5042;-58
2023/01/12 02:42:41;;;;;;;;;;;;;;;;;;5005627;28;1732;-57
2023/01/12 02:45:06;;;;;;;;;;;;;;;;;;5000550;28;4811;-57
2023/01/12 02:47:31;;;;;;;;;;;;;;;;;;5002141;28;4795;-57
2023/01/12 02:49:58;;;;;;;;;;;;;;;;;;4998229;28;4720;-58
2023/01/12 02:52:23;;;;;;;;;;;;;;;;;;5005842;28;5153;-63
2023/01/12 02:54:48;;;;;;;;;;;;;;;;;;5004332;28;3577;-58
2023/01/12 02:57:13;;;;;;;;;;;;;;;;;;5001108;28;4646;-60
2023/01/12 02:59:40;;;;;;;;;;;;;;;;;;5000797;28;4972;-58
2023/01/12 03:02:09;;;;;;;;;;;;;;;;;;4999682;28;4691;-58
2023/01/12 03:04:35;;;;;;;;;;;;;;;;;;5007340;28;4597;-58
2023/01/12 03:07:00;;;;;;;;;;;;;;;;;;5008874;28;4727;-60
2023/01/12 03:09:48;;;;;;;;;;;;;;;;;;5004529;28;3397;-55
2023/01/12 03:12:24;;;;;;;;;;;;;;;;;;4994377;28;5100;-61
2023/01/12 03:14:49;;;;;;;;;;;;;;;;;;4998544;28;4507;-58
2023/01/12 03:17:30;;;;;;;;;;;;;;;;;;5001211;28;4593;-59
2023/01/12 03:19:55;;;;;;;;;;;;;;;;;;4998228;28;4574;-58
2023/01/12 03:22:21;;;;;;;;;;;;;;;;;;5002756;28;5120;-58
2023/01/12 03:24:47;;;;;;;;;;;;;;;;;;5004681;28;3365;-58
2023/01/12 03:27:16;;;;;;;;;;;;;;;;;;5000195;28;5088;-59
2023/01/12 03:29:43;;;;;;;;;;;;;;;;;;5002394;28;4859;-58
2023/01/12 03:32:08;;;;;;;;;;;;;;;;;;5002826;28;4574;-59
2023/01/12 03:34:34;;;;;;;;;;;;;;;;;;5005207;28;4578;-62
2023/01/12 03:37:04;;;;;;;;;;;;;;;;;;5004581;28;4740;-59
2023/01/12 03:39:30;;;;;;;;;;;;;;;;;;4999891;28;3511;-60
2023/01/12 03:41:56;;;;;;;;;;;;;;;;;;5003266;28;5051;-58
2023/01/12 03:44:29;;;;;;;;;;;;;;;;;;5001533;28;4527;-59
2023/01/12 03:46:57;;;;;;;;;;;;;;;;;;5003898;28;4819;-58
2023/01/12 03:49:24;;;;;;;;;;;;;;;;;;4993970;28;4719;-57
2023/01/12 03:51:49;;;;;;;;;;;;;;;;;;4995820;28;3500;-57
2023/01/12 03:54:14;;;;;;;;;;;;;;;;;;4983805;28;5602;-59
2023/01/12 03:56:40;;;;;;;;;;;;;;;;;;4984151;28;5701;-58
2023/01/12 03:59:05;;;;;;;;;;;;;;;;;;4998623;28;4902;-58
2023/01/12 04:01:30;;;;;;;;;;;;;;;;;;4983231;28;4715;-57
2023/01/12 04:03:56;;;;;;;;;;;;;;;;;;4992968;28;3405;-58
2023/01/12 04:06:21;;;;;;;;;;;;;;;;;;4980829;28;5087;-58
2023/01/12 04:08:46;;;;;;;;;;;;;;;;;;4982091;28;5395;-58
2023/01/12 04:13:55;;;;;;;;;;;;;;;;;;4987659;28;4894;-61
2023/01/12 04:16:21;;;;;;;;;;;;;;;;;;5002822;28;5004;-59
2023/01/12 04:18:46;;;;;;;;;;;;;;;;;;5004842;28;3541;-60
2023/01/12 04:22:41;;;;;;;;;;;;;;;;;;4999021;28;5181;-58
2023/01/12 04:23:56;;;;;;;;;;;;;;;;;;5002106;28;4536;-61
2023/01/12 04:26:22;;;;;;;;;;;;;;;;;;5001378;28;5008;-59
2023/01/12 04:28:47;;;;;;;;;;;;;;;;;;5001915;28;5103;-61
2023/01/12 04:31:12;;;;;;;;;;;;;;;;;;4998783;28;4628;-58
2023/01/12 04:33:37;;;;;;;;;;;;;;;;;;5005714;28;3071;-58
2023/01/12 04:36:03;;;;;;;;;;;;;;;;;;4996718;28;5120;-59
2023/01/12 04:38:28;;;;;;;;;;;;;;;;;;5002756;28;4992;-58
2023/01/12 04:40:53;;;;;;;;;;;;;;;;;;4999641;28;5040;-58
2023/01/12 04:43:19;;;;;;;;;;;;;;;;;;4999763;28;4586;-58
2023/01/12 04:45:45;;;;;;;;;;;;;;;;;;4996884;28;3467;-62
2023/01/12 04:48:11;;;;;;;;;;;;;;;;;;4996637;28;4928;-58
2023/01/12 04:50:37;;;;;;;;;;;;;;;;;;5000099;28;4578;-59
2023/01/12 04:53:02;;;;;;;;;;;;;;;;;;4999258;28;5107;-59
2023/01/12 04:55:27;;;;;;;;;;;;;;;;;;4998357;28;4541;-59
2023/01/12 04:57:53;;;;;;;;;;;;;;;;;;5005432;28;3514;-57
2023/01/12 05:00:18;;;;;;;;;;;;;;;;;;5003512;28;4973;-60
2023/01/12 05:02:43;;;;;;;;;;;;;;;;;;5003190;28;4924;-56
2023/01/12 05:05:09;;;;;;;;;;;;;;;;;;4996243;28;5163;-58
2023/01/12 05:07:34;;;;;;;;;;;;;;;;;;4996766;28;4668;-59
2023/01/12 05:12:43;;;;;;;;;;;;;;;;;;5004433;28;3406;-59
2023/01/12 05:15:08;;;;;;;;;;;;;;;;;;5001530;28;4543;-57
2023/01/12 05:17:34;;;;;;;;;;;;;;;;;;5005801;28;5102;-57
2023/01/12 05:19:59;;;;;;;;;;;;;;;;;;4997381;28;4568;-59
2023/01/12 05:22:24;;;;;;;;;;;;;;;;;;5002557;28;5121;-57
2023/01/12 05:24:49;;;;;;;;;;;;;;;;;;4993577;28;3273;-59
2023/01/12 05:27:15;;;;;;;;;;;;;;;;;;5010161;28;4714;-55
2023/01/12 05:29:40;;;;;;;;;;;;;;;;;;5004157;28;5153;-56
2023/01/12 05:32:05;;;;;;;;;;;;;;;;;;5002578;28;4640;-57
2023/01/12 05:34:31;;;;;;;;;;;;;;;;;;5004142;28;5194;-59
2023/01/12 05:36:56;;;;;;;;;;;;;;;;;;5000578;28;3478;-58
2023/01/12 05:39:21;;;;;;;;;;;;;;;;;;4995558;28;4654;-58
2023/01/12 05:44:30;;;;;;;;;;;;;;;;;;4997544;28;4498;-57
2023/01/12 05:46:55;;;;;;;;;;;;;;;;;;5004212;28;4516;-57
2023/01/12 05:49:21;;;;;;;;;;;;;;;;;;5004696;28;4653;-60
2023/01/12 05:51:46;;;;;;;;;;;;;;;;;;5005351;28;1993;-57
2023/01/12 05:54:11;;;;;;;;;;;;;;;;;;4996059;28;5358;-60
2023/01/12 05:56:36;;;;;;;;;;;;;;;;;;4993032;28;4490;-61
2023/01/12 05:59:03;;;;;;;;;;;;;;;;;;5002704;28;5159;-58
2023/01/12 06:01:28;;;;;;;;;;;;;;;;;;5000041;28;4494;-58
2023/01/12 06:03:54;;;;;;;;;;;;;;;;;;5004263;28;3324;-57
2023/01/12 06:06:20;;;;;;;;;;;;;;;;;;5004189;28;4467;-59
2023/01/12 06:08:45;;;;;;;;;;;;;;;;;;5004193;28;4691;-58
2023/01/12 06:13:55;;;;;;;;;;;;;;;;;;4998593;28;5091;-58
2023/01/12 06:13:56;;;;;;;;;;;;;;;;;;4997420;28;4536;-58
2023/01/12 06:16:21;;;;;;;;;;;;;;;;;;4999849;28;5048;-57
2023/01/12 06:18:46;;;;;;;;;;;;;;;;;;4994805;28;3542;-58
2023/01/12 06:21:12;;;;;;;;;;;;;;;;;;5023430;28;4558;-57
2023/01/12 06:23:37;;;;;;;;;;;;;;;;;;5000289;28;4862;-60
2023/01/12 06:26:03;;;;;;;;;;;;;;;;;;5000135;28;5127;-59
2023/01/12 06:28:28;;;;;;;;;;;;;;;;;;5003272;28;4907;-57
2023/01/12 06:30:56;;;;;;;;;;;;;;;;;;5001510;28;4001;-57
2023/01/12 06:33:22;;;;;;;;;;;;;;;;;;5001957;28;5028;-56
2023/01/12 06:35:48;;;;;;;;;;;;;;;;;;4999885;28;4607;-56
2023/01/12 06:38:13;;;;;;;;;;;;;;;;;;4997687;28;5266;-58
2023/01/12 06:40:38;;;;;;;;;;;;;;;;;;4999061;28;5081;-56
2023/01/12 06:43:04;;;;;;;;;;;;;;;;;;5001392;28;4551;-58
2023/01/12 06:45:29;;;;;;;;;;;;;;;;;;4999809;28;3279;-60
2023/01/12 06:47:56;;;;;;;;;;;;;;;;;;5004335;28;4689;-59
2023/01/12 06:50:21;;;;;;;;;;;;;;;;;;5002530;28;4545;-62
2023/01/12 06:52:46;;;;;;;;;;;;;;;;;;4993740;28;4985;-62
2023/01/12 06:55:12;;;;;;;;;;;;;;;;;;4981857;28;4528;-61
2023/01/12 06:57:37;;;;;;;;;;;;;;;;;;4988764;28;1159;-61
2023/01/12 07:00:03;;;;;;;;;;;;;;;;;;4984934;28;4486;-62
2023/01/12 07:02:28;;;;;;;;;;;;;;;;;;4984336;28;4684;-62
2023/01/12 07:04:53;;;;;;;;;;;;;;;;;;4983012;28;5136;-62
2023/01/12 07:07:19;;;;;;;;;;;;;;;;;;4977406;28;4576;-62
2023/01/12 07:09:44;;;;;;;;;;;;;;;;;;4986714;28;3387;-61
2023/01/12 07:12:09;;;;;;;;;;;;;;;;;;4983146;28;5280;-61
2023/01/12 07:14:35;;;;;;;;;;;;;;;;;;4981687;28;4617;-62
2023/01/12 07:17:00;;;;;;;;;;;;;;;;;;4989963;28;5157;-61
2023/01/12 07:19:25;;;;;;;;;;;;;;;;;;4986222;28;4606;-62
2023/01/12 07:21:50;;;;;;;;;;;;;;;;;;4984898;28;3387;-57
2023/01/12 07:24:16;;;;;;;;;;;;;;;;;;4983024;28;4594;-56
2023/01/12 07:26:41;;;;;;;;;;;;;;;;;;4983591;28;4722;-57
2023/01/12 07:29:06;;;;;;;;;;;;;;;;;;4990224;28;5285;-58
2023/01/12 07:31:32;;;;;;;;;;;;;;;;;;4986902;28;4721;-57
2023/01/12 07:33:57;;;;;;;;;;;;;;;;;;4986841;28;3217;-57
2023/01/12 07:36:24;;;;;;;;;;;;;;;;;;4978768;28;5111;-57
2023/01/12 07:38:49;;;;;;;;;;;;;;;;;;4983601;28;4664;-61
2023/01/12 07:43:58;;;;;;;;;;;;;;;;;;5003755;28;5178;-59
2023/01/12 07:46:24;;;;;;;;;;;;;;;;;;5010065;28;5579;-58
2023/01/12 07:48:49;;;;;;;;;;;;;;;;;;5004087;28;3547;-56
2023/01/12 07:51:14;;;;;;;;;;;;;;;;;;5008825;28;4502;-57
2023/01/12 07:53:39;;;;;;;;;;;;;;;;;;5001261;28;5066;-58
2023/01/12 07:56:05;;;;;;;;;;;;;;;;;;5006596;28;4575;-58
2023/01/12 07:58:30;;;;;;;;;;;;;;;;;;4998077;28;5114;-57
2023/01/12 08:00:58;;;;;;;;;;;;;;;;;;5005455;28;3269;-57
2023/01/12 08:03:24;;;;;;;;;;;;;;;;;;4999585;28;5156;-56
2023/01/12 08:05:49;;;;;;;;;;;;;;;;;;4999321;28;5098;-57
2023/01/12 08:08:14;;;;;;;;;;;;;;;;;;5004738;28;4748;-56
2023/01/12 08:10:42;;;;;;;;;;;;;;;;;;4996387;28;5076;-59
2023/01/12 08:13:07;;;;;;;;;;;;;;;;;;4984236;28;5152;-56
2023/01/12 08:15:34;;;;;;;;;;;;;;;;;;4985080;28;3394;-57
2023/01/12 08:18:04;;;;;;;;;;;;;;;;;;4987611;28;4596;-57
2023/01/12 08:20:31;;;;;;;;;;;;;;;;;;4983786;28;4653;-57
2023/01/12 08:22:57;;;;;;;;;;;;;;;;;;4983050;28;5198;-58
2023/01/12 08:25:25;;;;;;;;;;;;;;;;;;4988962;28;4846;-57
2023/01/12 08:27:51;;;;;;;;;;;;;;;;;;4986426;28;3360;-59
2023/01/12 08:30:16;;;;;;;;;;;;;;;;;;4986291;28;5005;-57
2023/01/12 08:32:42;;;;;;;;;;;;;;;;;;4970454;28;4642;-57
2023/01/12 08:35:07;;;;;;;;;;;;;;;;;;4982987;28;5365;-56
2023/01/12 08:37:32;;;;;;;;;;;;;;;;;;4990087;28;4581;-56
2023/01/12 08:39:58;;;;;;;;;;;;;;;;;;4982226;28;5172;-60
2023/01/12 08:42:25;;;;;;;;;;;;;;;;;;4986795;28;3443;-57
2023/01/12 08:44:50;;;;;;;;;;;;;;;;;;4982241;28;4536;-57
2023/01/12 08:47:19;;;;;;;;;;;;;;;;;;4983651;28;4703;-57
2023/01/12 08:49:45;;;;;;;;;;;;;;;;;;4991693;28;5088;-54
2023/01/12 08:52:10;;;;;;;;;;;;;;;;;;5006373;28;5270;-56
2023/01/12 08:54:35;;;;;;;;;;;;;;;;;;5000588;28;3289;-57
2023/01/12 08:57:01;;;;;;;;;;;;;;;;;;5014863;28;4732;-56
2023/01/12 08:59:26;;;;;;;;;;;;;;;;;;5006447;28;5175;-58
2023/01/12 09:01:51;;;;;;;;;;;;;;;;;;5003466;28;4546;-57
2023/01/12 09:04:16;;;;;;;;;;;;;;;;;;5001588;28;4658;-57
2023/01/12 09:06:42;;;;;;;;;;;;;;;;;;5004358;28;3316;-57
2023/01/12 09:09:09;;;;;;;;;;;;;;;;;;5011840;28;4710;-56
2023/01/12 09:11:34;;;;;;;;;;;;;;;;;;5004217;28;4671;-57
2023/01/12 09:14:00;;;;;;;;;;;;;;;;;;4998757;28;5071;-57
2023/01/12 09:16:26;;;;;;;;;;;;;;;;;;5005337;28;5156;-63
2023/01/12 09:18:51;;;;;;;;;;;;;;;;;;5006372;28;3525;-63
2023/01/12 09:21:17;;;;;;;;;;;;;;;;;;4998747;28;4630;-64
2023/01/12 09:23:44;;;;;;;;;;;;;;;;;;5000052;28;5149;-57
2023/01/12 09:26:13;;;;;;;;;;;;;;;;;;5007924;28;4709;-57
2023/01/12 09:28:38;;;;;;;;;;;;;;;;;;5001204;28;5083;-61
2023/01/12 09:31:05;;;;;;;;;;;;;;;;;;5001784;28;4734;-57
2023/01/12 09:33:30;;;;;;;;;;;;;;;;;;5007569;28;1135;-57
2023/01/12 09:35:59;;;;;;;;;;;;;;;;;;5002438;28;5118;-57
2023/01/12 09:38:24;;;;;;;;;;;;;;;;;;5006292;28;4643;-57
2023/01/12 09:40:50;;;;;;;;;;;;;;;;;;5012035;28;4571;-57
2023/01/12 09:47:00;;;;;;;;;;;;;;;;;;5005889;28;4674;-58
2023/01/12 09:48:54;;;;;;;;;;;;;;;;;;4994069;28;3529;-58
2023/01/12 09:51:21;;;;;;;;;;;;;;;;;;5002169;28;4635;-57
2023/01/12 09:53:47;;;;;;;;;;;;;;;;;;5009783;28;4561;-60
2023/01/12 09:56:14;;;;;;;;;;;;;;;;;;5010200;28;4508;-57
2023/01/12 09:58:39;;;;;;;;;;;;;;;;;;4993148;28;4735;-56
2023/01/12 10:01:08;;;;;;;;;;;;;;;;;;5001789;28;4949;-62
2023/01/12 10:03:37;;;;;;;;;;;;;;;;;;5000235;28;3296;-58
2023/01/12 10:06:02;;;;;;;;;;;;;;;;;;5008587;28;4962;-56
2023/01/12 10:08:34;;;;;;;;;;;;;;;;;;5010272;28;4456;-56
2023/01/12 10:10:59;;;;;;;;;;;;;;;;;;5004907;28;5092;-58
2023/01/12 10:13:25;;;;;;;;;;;;;;;;;;5006342;28;5034;-57
2023/01/12 10:15:56;;;;;;;;;;;;;;;;;;4998557;28;3014;-59
2023/01/12 10:18:32;;;;;;;;;;;;;;;;;;5004809;28;4943;-59
2023/01/12 10:20:58;;;;;;;;;;;;;;;;;;5009624;28;4876;-58
2023/01/12 10:23:24;;;;;;;;;;;;;;;;;;5006891;28;5117;-58
2023/01/12 10:25:49;;;;;;;;;;;;;;;;;;5010390;28;4554;-59
2023/01/12 10:28:14;;;;;;;;;;;;;;;;;;5006853;28;4980;-59
2023/01/12 10:30:40;;;;;;;;;;;;;;;;;;5008383;28;1995;-58
2023/01/12 10:33:09;;;;;;;;;;;;;;;;;;5003363;28;4806;-58
2023/01/12 10:35:34;;;;;;;;;;;;;;;;;;5001058;28;5160;-58
2023/01/12 10:38:00;;;;;;;;;;;;;;;;;;5008696;28;5036;-59
2023/01/12 10:40:25;;;;;;;;;;;;;;;;;;5009575;28;4724;-58
2023/01/12 10:45:34;;;;;;;;;;;;;;;;;;5012624;28;4597;-57
2023/01/12 10:48:00;;;;;;;;;;;;;;;;;;5006283;28;5073;-59
2023/01/12 10:50:28;;;;;;;;;;;;;;;;;;4998783;28;4678;-60
2023/01/12 10:52:59;;;;;;;;;;;;;;;;;;5003050;28;4505;-58
2023/01/12 10:55:27;;;;;;;;;;;;;;;;;;5003392;28;5657;-58
2023/01/12 10:57:53;;;;;;;;;;;;;;;;;;5006431;28;3413;-57
2023/01/12 11:00:21;;;;;;;;;;;;;;;;;;5006006;28;5135;-60
2023/01/12 11:02:47;;;;;;;;;;;;;;;;;;5009645;28;5341;-55
2023/01/12 11:05:37;;;;;;;;;;;;;;;;;;4987567;28;5139;-59
2023/01/12 11:08:02;;;;;;;;;;;;;;;;;;5003501;28;4486;-55
2023/01/12 11:10:32;;;;;;;;;;;;;;;;;;5003672;28;4538;-62
2023/01/12 11:13:02;;;;;;;;;;;;;;;;;;5002358;28;986;-57
2023/01/12 11:15:28;;;;;;;;;;;;;;;;;;5009353;28;5045;-57
2023/01/12 11:18:06;;;;;;;;;;;;;;;;;;5007463;28;5175;-57
2023/01/12 11:20:31;;;;;;;;;;;;;;;;;;5006361;28;4517;-57
2023/01/12 11:22:58;;;;;;;;;;;;;;;;;;5003688;28;5210;-57
2023/01/12 11:25:23;;;;;;;;;;;;;;;;;;5006267;28;5009;-58
2023/01/12 11:28:03;;;;;;;;;;;;;;;;;;5007461;28;3126;-56
2023/01/12 11:30:30;;;;;;;;;;;;;;;;;;5012182;28;5141;-62
2023/01/12 11:32:56;;;;;;;;;;;;;;;;;;5006393;28;4711;-56
2023/01/12 11:35:26;;;;;;;;;;;;;;;;;;5003460;28;4690;-56
2023/01/12 11:37:51;;;;;;;;;;;;;;;;;;5006043;28;4733;-55
2023/01/12 11:40:20;;;;;;;;;;;;;;;;;;5007802;28;5095;-56
2023/01/12 11:45:33;;;;;;;;;;;;;;;;;;4988010;28;4591;-57
2023/01/12 11:47:59;;;;;;;;;;;;;;;;;;4989558;28;5117;-60
2023/01/12 11:50:28;;;;;;;;;;;;;;;;;;4987563;28;5060;-56
2023/01/12 11:52:54;;;;;;;;;;;;;;;;;;4995928;28;5058;-55
2023/01/12 11:55:22;;;;;;;;;;;;;;;;;;5005544;28;4663;-55
2023/01/12 11:57:54;;;;;;;;;;;;;;;;;;5006875;28;1201;-56
2023/01/12 12:00:25;;;;;;;;;;;;;;;;;;5003412;28;5223;-57
2023/01/12 12:02:58;;;;;;;;;;;;;;;;;;5005553;28;4886;-57
2023/01/12 12:05:26;;;;;;;;;;;;;;;;;;5017030;28;4898;-57
2023/01/12 12:08:10;;;;;;;;;;;;;;;;;;5005650;28;4849;-58
2023/01/12 12:10:54;;;;;;;;;;;;;;;;;;5000132;28;5081;-56
2023/01/12 12:13:20;;;;;;;;;;;;;;;;;;5008941;28;5066;-57
2023/01/12 12:15:48;;;;;;;;;;;;;;;;;;5003373;28;3343;-55
2023/01/12 12:18:19;;;;;;;;;;;;;;;;;;5002566;28;4853;-55
2023/01/12 12:21:03;;;;;;;;;;;;;;;;;;5006846;28;4658;-56
2023/01/12 12:23:28;;;;;;;;;;;;;;;;;;4999363;28;4980;-60
2023/01/12 12:25:56;;;;;;;;;;;;;;;;;;5003187;28;4473;-54
2023/01/12 12:28:24;;;;;;;;;;;;;;;;;;5003588;28;4576;-57
2023/01/12 12:30:53;;;;;;;;;;;;;;;;;;5001522;28;3232;-53
2023/01/12 12:33:21;;;;;;;;;;;;;;;;;;5000383;28;5087;-55
2023/01/12 12:35:49;;;;;;;;;;;;;;;;;;5006291;28;5206;-59
2023/01/12 12:38:16;;;;;;;;;;;;;;;;;;5005323;28;5185;-63
2023/01/12 12:46:16;;;;;;;;;;;;;;;;;;5001662;28;5139;-58
2023/01/12 12:48:44;;;;;;;;;;;;;;;;;;5003741;28;1177;-58
2023/01/12 12:51:10;;;;;;;;;;;;;;;;;;5006195;28;4651;-56
2023/01/12 12:53:39;;;;;;;;;;;;;;;;;;4990755;28;5015;-57
2023/01/12 12:56:06;;;;;;;;;;;;;;;;;;4986468;28;5621;-58
2023/01/12 12:58:38;;;;;;;;;;;;;;;;;;4980563;28;4553;-57
2023/01/12 13:01:18;;;;;;;;;;;;;;;;;;4982452;28;5102;-57
2023/01/12 13:03:44;;;;;;;;;;;;;;;;;;4992415;28;3522;-57
2023/01/12 13:06:15;;;;;;;;;;;;;;;;;;4981550;28;4521;-58
2023/01/12 13:08:40;;;;;;;;;;;;;;;;;;4980056;28;4700;-58
2023/01/12 13:11:05;;;;;;;;;;;;;;;;;;4978077;28;4912;-58
2023/01/12 13:13:31;;;;;;;;;;;;;;;;;;4980401;28;5285;-58
2023/01/12 13:16:15;;;;;;;;;;;;;;;;;;4986190;28;1086;-58
2023/01/12 13:18:42;;;;;;;;;;;;;;;;;;5000786;28;4618;-57
2023/01/12 13:21:26;;;;;;;;;;;;;;;;;;5003995;28;4888;-58
2023/01/12 13:23:52;;;;;;;;;;;;;;;;;;4995801;28;5073;-58
2023/01/12 13:26:23;;;;;;;;;;;;;;;;;;5005245;28;4694;-58
2023/01/12 13:29:08;;;;;;;;;;;;;;;;;;5004471;28;4700;-57
2023/01/12 13:31:34;;;;;;;;;;;;;;;;;;5006298;28;5148;-58
2023/01/12 13:34:18;;;;;;;;;;;;;;;;;;5003529;28;5099;-58
2023/01/12 13:36:43;;;;;;;;;;;;;;;;;;5001605;28;3300;-58
2023/01/12 13:39:08;;;;;;;;;;;;;;;;;;5002960;28;4611;-59
2023/01/12 13:44:33;;;;;;;;;;;;;;;;;;5002818;28;4502;-58
2023/01/12 13:47:09;;;;;;;;;;;;;;;;;;5006721;28;4985;-59
2023/01/12 13:49:34;;;;;;;;;;;;;;;;;;5001984;28;4517;-58
2023/01/12 13:52:08;;;;;;;;;;;;;;;;;;5009654;28;5122;-58
2023/01/12 13:54:33;;;;;;;;;;;;;;;;;;4996331;28;3654;-57
2023/01/12 13:57:03;;;;;;;;;;;;;;;;;;5003064;28;4954;-61
2023/01/12 13:59:29;;;;;;;;;;;;;;;;;;5005193;28;5067;-58
2023/01/12 14:01:55;;;;;;;;;;;;;;;;;;5003779;28;4533;-58
2023/01/12 14:04:23;;;;;;;;;;;;;;;;;;5002018;28;4811;-57
2023/01/12 14:06:53;;;;;;;;;;;;;;;;;;5002899;28;3535;-59
2023/01/12 14:09:30;;;;;;;;;;;;;;;;;;5000942;28;5388;-60
2023/01/12 14:12:18;;;;;;;;;;;;;;;;;;5006616;28;4975;-60
2023/01/12 14:17:49;;;;;;;;;;;;;;;;;;5002661;28;5077;-60
2023/01/12 14:20:14;;;;;;;;;;;;;;;;;;4999558;28;4739;-61
2023/01/12 14:22:39;;;;;;;;;;;;;;;;;;5004213;28;5064;-60
2023/01/12 14:25:15;;;;;;;;;;;;;;;;;;4996725;28;4848;-60
2023/01/12 14:27:47;;;;;;;;;;;;;;;;;;5002372;28;1192;-60
2023/01/12 14:30:12;;;;;;;;;;;;;;;;;;4993199;28;5688;-61
2023/01/12 14:32:40;;;;;;;;;;;;;;;;;;5005486;28;4652;-61
2023/01/12 14:35:12;;;;;;;;;;;;;;;;;;5000291;28;5075;-61
2023/01/12 14:37:38;;;;;;;;;;;;;;;;;;5006531;28;4502;-59
2023/01/12 14:40:03;;;;;;;;;;;;;;;;;;5006520;28;4482;-60
2023/01/12 14:48:18;;;;;;;;;;;;;;;;;;5005298;28;5108;-60
2023/01/12 14:50:56;;;;;;;;;;;;;;;;;;5002812;28;4528;-60
2023/01/12 14:53:30;;;;;;;;;;;;;;;;;;5008137;28;5190;-60
2023/01/12 14:55:56;;;;;;;;;;;;;;;;;;5007875;28;4525;-59
2023/01/12 14:58:21;;;;;;;;;;;;;;;;;;4995987;28;4996;-58
2023/01/12 15:00:46;;;;;;;;;;;;;;;;;;5006379;28;3470;-58
2023/01/12 15:03:16;;;;;;;;;;;;;;;;;;5008102;28;5094;-59
2023/01/12 15:05:43;;;;;;;;;;;;;;;;;;5008065;28;4965;-63
2023/01/12 15:08:08;;;;;;;;;;;;;;;;;;5002117;28;4662;-60
2023/01/12 15:10:34;;;;;;;;;;;;;;;;;;5006091;28;4928;-60
2023/01/12 15:13:38;;;;;;;;;;;;;;;;;;5004709;28;4641;-61
2023/01/12 15:27:06;;;;;;;;;;;;;;;;;;4982910;28;5000;-60
2023/01/12 15:29:31;;;;;;;;;;;;;;;;;;4979079;28;6166;-59
2023/01/12 15:31:56;;;;;;;;;;;;;;;;;;4986233;28;4693;-59
2023/01/12 15:34:21;;;;;;;;;;;;;;;;;;4981456;28;5087;-59
2023/01/12 15:36:47;;;;;;;;;;;;;;;;;;4979018;28;3612;-54
2023/01/12 15:39:13;;;;;;;;;;;;;;;;;;4985356;28;4710;-59
2023/01/12 15:44:22;;;;;;;;;;;;;;;;;;4985464;28;5069;-61
2023/01/12 15:46:47;;;;;;;;;;;;;;;;;;4985768;28;3620;-63
2023/01/12 15:49:12;;;;;;;;;;;;;;;;;;4985826;28;1780;-63
2023/01/12 15:51:38;;;;;;;;;;;;;;;;;;4986918;28;2040;-62
2023/01/12 15:54:03;;;;;;;;;;;;;;;;;;4981775;28;2140;-62
2023/01/12 15:56:28;;;;;;;;;;;;;;;;;;4989977;28;1637;-62
2023/01/12 15:58:53;;;;;;;;;;;;;;;;;;4997167;28;2143;-70
2023/01/12 16:01:19;;;;;;;;;;;;;;;;;;4989314;28;2088;-70
2023/01/12 16:03:44;;;;;;;;;;;;;;;;;;4989007;28;2028;-70
2023/01/12 16:06:09;;;;;;;;;;;;;;;;;;4987789;28;1814;-69
2023/01/12 16:08:35;;;;;;;;;;;;;;;;;;4990155;28;1146;-66
2023/01/12 16:11:11;;;;;;;;;;;;;;;;;;4983976;28;1895;-64
2023/01/12 16:13:37;;;;;;;;;;;;;;;;;;4988595;28;2064;-66
2023/01/12 16:16:02;;;;;;;;;;;;;;;;;;4991316;28;1940;-69
2023/01/12 16:18:28;;;;;;;;;;;;;;;;;;4989065;28;2007;-65
2023/01/12 16:20:59;;;;;;;;;;;;;;;;;;4993544;28;1967;-67
2023/01/12 16:23:25;;;;;;;;;;;;;;;;;;4982488;28;2096;-69
2023/01/12 16:25:56;;;;;;;;;;;;;;;;;;4990404;28;1906;-68
2023/01/12 16:28:22;;;;;;;;;;;;;;;;;;5006025;28;1967;-69
2023/01/12 16:30:47;;;;;;;;;;;;;;;;;;4990626;28;1975;-67
2023/01/12 16:33:14;;;;;;;;;;;;;;;;;;4994572;28;2570;-69
2023/01/12 16:35:39;;;;;;;;;;;;;;;;;;4984947;28;1899;-69
2023/01/12 16:38:05;;;;;;;;;;;;;;;;;;4991223;28;1911;-69
2023/01/12 16:40:30;;;;;;;;;;;;;;;;;;4998539;28;1863;-70
2023/01/12 16:42:55;;;;;;;;;;;;;;;;;;4998251;28;1989;-67
2023/01/12 16:45:20;;;;;;;;;;;;;;;;;;4993374;28;1986;-63
2023/01/12 16:47:46;;;;;;;;;;;;;;;;;;4993751;28;1963;-69
2023/01/12 16:50:11;;;;;;;;;;;;;;;;;;4996440;28;1985;-69
2023/01/12 16:52:36;;;;;;;;;;;;;;;;;;4989869;28;1934;-69
2023/01/12 16:55:03;;;;;;;;;;;;;;;;;;4992693;28;1949;-69
2023/01/12 16:57:28;;;;;;;;;;;;;;;;;;4989530;28;1082;-65
2023/01/12 16:59:54;;;;;;;;;;;;;;;;;;4986859;28;1742;-67
2023/01/12 17:02:19;;;;;;;;;;;;;;;;;;4988726;28;1164;-67
2023/01/12 17:04:46;;;;;;;;;;;;;;;;;;4989178;28;1165;-68
2023/01/12 17:07:11;;;;;;;;;;;;;;;;;;4987465;28;1999;-69
2023/01/12 17:09:37;;;;;;;;;;;;;;;;;;4989356;28;1376;-69
2023/01/12 17:12:02;;;;;;;;;;;;;;;;;;4987062;28;2017;-68
2023/01/12 17:14:32;;;;;;;;;;;;;;;;;;4991357;28;1911;-66
2023/01/12 17:16:57;;;;;;;;;;;;;;;;;;4990117;28;1950;-67
2023/01/12 17:19:23;;;;;;;;;;;;;;;;;;4987615;28;1649;-66
2023/01/12 17:21:49;;;;;;;;;;;;;;;;;;4989195;28;987;-68
2023/01/12 17:24:16;;;;;;;;;;;;;;;;;;4989254;28;1181;-62
2023/01/12 17:26:42;;;;;;;;;;;;;;;;;;4979807;28;2012;-67
2023/01/12 17:29:09;;;;;;;;;;;;;;;;;;4988826;28;1615;-63
2023/01/12 17:31:34;;;;;;;;;;;;;;;;;;4987159;28;1956;-66
2023/01/12 17:33:59;;;;;;;;;;;;;;;;;;4987683;28;1787;-60
2023/01/12 17:36:25;;;;;;;;;;;;;;;;;;4978502;28;1904;-60
2023/01/12 17:38:50;;;;;;;;;;;;;;;;;;4986414;28;1844;-60
2023/01/12 17:44:00;;;;;;;;;;;;;;;;;;4983216;28;1725;-62
2023/01/12 17:46:25;;;;;;;;;;;;;;;;;;4983700;28;1869;-64
2023/01/12 17:48:50;;;;;;;;;;;;;;;;;;4987398;28;1779;-64
2023/01/12 17:51:15;;;;;;;;;;;;;;;;;;4986790;28;1966;-67
2023/01/12 17:53:40;;;;;;;;;;;;;;;;;;4984709;28;1825;-65
2023/01/12 17:56:06;;;;;;;;;;;;;;;;;;4984199;28;1947;-68
2023/01/12 17:58:31;;;;;;;;;;;;;;;;;;4986642;28;1943;-66
2023/01/12 18:00:57;;;;;;;;;;;;;;;;;;4990292;28;1954;-68
2023/01/12 18:03:22;;;;;;;;;;;;;;;;;;4987401;28;1948;-63
2023/01/12 18:05:47;;;;;;;;;;;;;;;;;;4987833;28;2094;-61